sensor_id;sensor_type;location;lat;lon;timestamp;P1;durP1;ratioP1;P2;durP2;ratioP2
61741;SDS011;47650;49.848;9.620;2023-03-01T00:01:28;25.38;;;18.38;;
61741;SDS011;47650;49.848;9.620;2023-03-01T00:06:25;28.90;;;19.25;;
61741;SDS011;47650;49.848;9.620;2023-03-01T00:08:53;26.15;;;18.05;;
61741;SDS011;47650;49.848;9.620;2023-03-01T00:11:24;26.88;;;18.80;;
61741;SDS011;47650;49.848;9.620;2023-03-01T00:13:53;29.00;;;18.83;;
61741;SDS011;47650;49.848;9.620;2023-03-01T00:16:24;28.92;;;18.95;;
61741;SDS011;47650;49.848;9.620;2023-03-01T00:18:55;28.15;;;19.42;;
61741;SDS011;47650;49.848;9.620;2023-03-01T00:21:22;28.50;;;19.45;;
61741;SDS011;47650;49.848;9.620;2023-03-01T00:23:55;26.00;;;18.55;;
61741;SDS011;47650;49.848;9.620;2023-03-01T00:26:29;26.88;;;18.35;;
61741;SDS011;47650;49.848;9.620;2023-03-01T00:28:56;27.08;;;18.45;;
61741;SDS011;47650;49.848;9.620;2023-03-01T00:31:32;28.55;;;18.75;;
61741;SDS011;47650;49.848;9.620;2023-03-01T00:34:02;25.50;;;18.42;;
61741;SDS011;47650;49.848;9.620;2023-03-01T00:36:35;26.75;;;19.42;;
61741;SDS011;47650;49.848;9.620;2023-03-01T00:39:03;26.38;;;18.05;;
61741;SDS011;47650;49.848;9.620;2023-03-01T00:41:35;28.63;;;18.52;;
61741;SDS011;47650;49.848;9.620;2023-03-01T00:44:01;28.50;;;18.83;;
61741;SDS011;47650;49.848;9.620;2023-03-01T00:46:32;28.75;;;19.55;;
61741;SDS011;47650;49.848;9.620;2023-03-01T00:49:08;29.52;;;19.60;;
61741;SDS011;47650;49.848;9.620;2023-03-01T00:51:36;28.05;;;18.45;;
61741;SDS011;47650;49.848;9.620;2023-03-01T00:54:07;29.50;;;19.20;;
61741;SDS011;47650;49.848;9.620;2023-03-01T00:56:33;27.40;;;18.38;;
61741;SDS011;47650;49.848;9.620;2023-03-01T00:59:05;28.55;;;19.70;;
61741;SDS011;47650;49.848;9.620;2023-03-01T01:01:32;27.73;;;19.25;;
61741;SDS011;47650;49.848;9.620;2023-03-01T01:03:58;30.02;;;20.42;;
61741;SDS011;47650;49.848;9.620;2023-03-01T01:06:37;29.33;;;20.42;;
61741;SDS011;47650;49.848;9.620;2023-03-01T01:09:16;28.45;;;19.40;;
61741;SDS011;47650;49.848;9.620;2023-03-01T01:11:46;32.45;;;21.23;;
61741;SDS011;47650;49.848;9.620;2023-03-01T01:14:15;28.05;;;19.88;;
61741;SDS011;47650;49.848;9.620;2023-03-01T01:16:41;31.23;;;20.42;;
61741;SDS011;47650;49.848;9.620;2023-03-01T01:19:16;29.60;;;20.23;;
61741;SDS011;47650;49.848;9.620;2023-03-01T01:21:43;29.55;;;19.88;;
61741;SDS011;47650;49.848;9.620;2023-03-01T01:24:11;26.92;;;18.92;;
61741;SDS011;47650;49.848;9.620;2023-03-01T01:26:37;30.65;;;19.20;;
61741;SDS011;47650;49.848;9.620;2023-03-01T01:29:08;27.23;;;19.77;;
61741;SDS011;47650;49.848;9.620;2023-03-01T01:31:34;29.30;;;19.90;;
61741;SDS011;47650;49.848;9.620;2023-03-01T01:34:04;29.75;;;20.05;;
61741;SDS011;47650;49.848;9.620;2023-03-01T01:36:30;30.75;;;19.45;;
61741;SDS011;47650;49.848;9.620;2023-03-01T01:39:02;32.17;;;20.23;;
61741;SDS011;47650;49.848;9.620;2023-03-01T01:41:30;29.42;;;19.60;;
61741;SDS011;47650;49.848;9.620;2023-03-01T01:46:57;31.65;;;19.52;;
61741;SDS011;47650;49.848;9.620;2023-03-01T01:49:33;30.48;;;20.73;;
61741;SDS011;47650;49.848;9.620;2023-03-01T01:55:14;33.13;;;20.83;;
61741;SDS011;47650;49.848;9.620;2023-03-01T01:57:47;30.33;;;20.17;;
61741;SDS011;47650;49.848;9.620;2023-03-01T02:00:19;30.75;;;20.83;;
61741;SDS011;47650;49.848;9.620;2023-03-01T02:02:48;29.95;;;20.50;;
61741;SDS011;47650;49.848;9.620;2023-03-01T02:05:32;30.00;;;19.73;;
61741;SDS011;47650;49.848;9.620;2023-03-01T02:08:08;30.20;;;20.23;;
61741;SDS011;47650;49.848;9.620;2023-03-01T02:10:37;28.50;;;19.58;;
61741;SDS011;47650;49.848;9.620;2023-03-01T02:13:04;29.38;;;19.17;;
61741;SDS011;47650;49.848;9.620;2023-03-01T02:15:36;32.67;;;20.90;;
61741;SDS011;47650;49.848;9.620;2023-03-01T02:23:27;27.45;;;18.88;;
61741;SDS011;47650;49.848;9.620;2023-03-01T02:28:37;28.25;;;19.52;;
61741;SDS011;47650;49.848;9.620;2023-03-01T02:31:05;29.02;;;19.23;;
61741;SDS011;47650;49.848;9.620;2023-03-01T02:33:51;30.85;;;20.05;;
61741;SDS011;47650;49.848;9.620;2023-03-01T02:36:52;31.35;;;20.35;;
61741;SDS011;47650;49.848;9.620;2023-03-01T02:39:18;30.52;;;20.00;;
61741;SDS011;47650;49.848;9.620;2023-03-01T02:41:54;30.02;;;20.38;;
61741;SDS011;47650;49.848;9.620;2023-03-01T02:44:30;31.40;;;21.13;;
61741;SDS011;47650;49.848;9.620;2023-03-01T02:47:01;31.77;;;20.00;;
61741;SDS011;47650;49.848;9.620;2023-03-01T02:49:33;31.15;;;19.85;;
61741;SDS011;47650;49.848;9.620;2023-03-01T02:52:06;31.17;;;20.98;;
61741;SDS011;47650;49.848;9.620;2023-03-01T02:54:43;31.00;;;21.58;;
61741;SDS011;47650;49.848;9.620;2023-03-01T02:57:17;30.92;;;20.50;;
61741;SDS011;47650;49.848;9.620;2023-03-01T02:59:43;29.67;;;20.13;;
61741;SDS011;47650;49.848;9.620;2023-03-01T03:02:24;29.90;;;20.88;;
61741;SDS011;47650;49.848;9.620;2023-03-01T03:05:10;31.45;;;20.70;;
61741;SDS011;47650;49.848;9.620;2023-03-01T03:07:43;33.22;;;21.65;;
61741;SDS011;47650;49.848;9.620;2023-03-01T03:10:12;28.83;;;20.48;;
61741;SDS011;47650;49.848;9.620;2023-03-01T03:12:41;30.92;;;19.85;;
61741;SDS011;47650;49.848;9.620;2023-03-01T03:15:12;31.13;;;20.35;;
61741;SDS011;47650;49.848;9.620;2023-03-01T03:17:39;31.75;;;21.90;;
61741;SDS011;47650;49.848;9.620;2023-03-01T03:20:07;29.35;;;19.70;;
61741;SDS011;47650;49.848;9.620;2023-03-01T03:22:38;30.30;;;20.63;;
61741;SDS011;47650;49.848;9.620;2023-03-01T03:25:17;29.42;;;19.95;;
61741;SDS011;47650;49.848;9.620;2023-03-01T03:27:49;31.98;;;20.95;;
61741;SDS011;47650;49.848;9.620;2023-03-01T03:30:31;35.05;;;21.27;;
61741;SDS011;47650;49.848;9.620;2023-03-01T03:32:57;32.15;;;21.45;;
61741;SDS011;47650;49.848;9.620;2023-03-01T03:37:57;29.33;;;19.90;;
61741;SDS011;47650;49.848;9.620;2023-03-01T03:40:34;31.75;;;20.70;;
61741;SDS011;47650;49.848;9.620;2023-03-01T03:43:05;29.40;;;20.20;;
61741;SDS011;47650;49.848;9.620;2023-03-01T03:45:34;34.10;;;21.30;;
61741;SDS011;47650;49.848;9.620;2023-03-01T03:48:08;31.95;;;20.38;;
61741;SDS011;47650;49.848;9.620;2023-03-01T03:50:46;33.13;;;20.77;;
61741;SDS011;47650;49.848;9.620;2023-03-01T03:53:13;33.58;;;20.42;;
61741;SDS011;47650;49.848;9.620;2023-03-01T03:55:46;31.13;;;20.77;;
61741;SDS011;47650;49.848;9.620;2023-03-01T03:58:14;31.60;;;20.02;;
61741;SDS011;47650;49.848;9.620;2023-03-01T04:00:41;30.50;;;20.42;;
61741;SDS011;47650;49.848;9.620;2023-03-01T04:03:10;28.27;;;20.25;;
61741;SDS011;47650;49.848;9.620;2023-03-01T04:05:39;31.52;;;20.42;;
61741;SDS011;47650;49.848;9.620;2023-03-01T04:08:08;31.83;;;20.60;;
61741;SDS011;47650;49.848;9.620;2023-03-01T04:10:39;27.65;;;19.55;;
61741;SDS011;47650;49.848;9.620;2023-03-01T04:13:06;33.58;;;21.83;;
61741;SDS011;47650;49.848;9.620;2023-03-01T04:15:34;30.15;;;21.08;;
61741;SDS011;47650;49.848;9.620;2023-03-01T04:18:01;30.52;;;20.38;;
61741;SDS011;47650;49.848;9.620;2023-03-01T04:20:36;29.45;;;20.30;;
61741;SDS011;47650;49.848;9.620;2023-03-01T04:23:15;29.13;;;20.38;;
61741;SDS011;47650;49.848;9.620;2023-03-01T04:25:48;32.67;;;21.25;;
61741;SDS011;47650;49.848;9.620;2023-03-01T04:28:34;29.83;;;21.20;;
61741;SDS011;47650;49.848;9.620;2023-03-01T04:31:08;29.67;;;21.42;;
61741;SDS011;47650;49.848;9.620;2023-03-01T04:33:41;28.73;;;20.40;;
61741;SDS011;47650;49.848;9.620;2023-03-01T04:36:09;32.65;;;21.15;;
61741;SDS011;47650;49.848;9.620;2023-03-01T04:38:38;34.75;;;21.17;;
61741;SDS011;47650;49.848;9.620;2023-03-01T04:41:05;29.75;;;20.42;;
61741;SDS011;47650;49.848;9.620;2023-03-01T04:43:36;33.50;;;21.40;;
61741;SDS011;47650;49.848;9.620;2023-03-01T04:46:03;30.75;;;20.85;;
61741;SDS011;47650;49.848;9.620;2023-03-01T04:48:35;30.08;;;19.98;;
61741;SDS011;47650;49.848;9.620;2023-03-01T04:51:02;30.08;;;20.08;;
61741;SDS011;47650;49.848;9.620;2023-03-01T04:53:44;32.20;;;22.05;;
61741;SDS011;47650;49.848;9.620;2023-03-01T04:56:12;28.47;;;19.97;;
61741;SDS011;47650;49.848;9.620;2023-03-01T04:58:39;31.05;;;20.70;;
61741;SDS011;47650;49.848;9.620;2023-03-01T05:01:12;31.10;;;21.05;;
61741;SDS011;47650;49.848;9.620;2023-03-01T05:03:48;31.85;;;21.38;;
61741;SDS011;47650;49.848;9.620;2023-03-01T05:06:18;32.28;;;20.98;;
61741;SDS011;47650;49.848;9.620;2023-03-01T05:08:47;29.30;;;20.88;;
61741;SDS011;47650;49.848;9.620;2023-03-01T05:11:20;29.23;;;19.98;;
61741;SDS011;47650;49.848;9.620;2023-03-01T05:13:52;28.63;;;19.42;;
61741;SDS011;47650;49.848;9.620;2023-03-01T05:16:20;30.55;;;20.13;;
61741;SDS011;47650;49.848;9.620;2023-03-01T05:18:46;28.65;;;20.10;;
61741;SDS011;47650;49.848;9.620;2023-03-01T05:21:17;31.88;;;21.27;;
61741;SDS011;47650;49.848;9.620;2023-03-01T05:23:49;30.20;;;19.95;;
61741;SDS011;47650;49.848;9.620;2023-03-01T05:26:16;32.35;;;21.08;;
61741;SDS011;47650;49.848;9.620;2023-03-01T05:28:45;30.98;;;19.88;;
61741;SDS011;47650;49.848;9.620;2023-03-01T05:31:11;28.90;;;20.30;;
61741;SDS011;47650;49.848;9.620;2023-03-01T05:33:37;28.63;;;19.90;;
61741;SDS011;47650;49.848;9.620;2023-03-01T05:36:11;28.48;;;19.27;;
61741;SDS011;47650;49.848;9.620;2023-03-01T05:38:40;30.50;;;20.23;;
61741;SDS011;47650;49.848;9.620;2023-03-01T05:41:14;23.23;;;17.40;;
61741;SDS011;47650;49.848;9.620;2023-03-01T05:43:42;26.92;;;18.17;;
61741;SDS011;47650;49.848;9.620;2023-03-01T05:46:09;23.63;;;17.00;;
61741;SDS011;47650;49.848;9.620;2023-03-01T05:48:38;26.13;;;17.90;;
61741;SDS011;47650;49.848;9.620;2023-03-01T05:51:09;27.98;;;19.45;;
61741;SDS011;47650;49.848;9.620;2023-03-01T05:53:36;27.98;;;19.75;;
61741;SDS011;47650;49.848;9.620;2023-03-01T05:56:04;27.92;;;19.55;;
61741;SDS011;47650;49.848;9.620;2023-03-01T05:58:35;29.27;;;18.33;;
61741;SDS011;47650;49.848;9.620;2023-03-01T06:01:00;37.28;;;18.23;;
61741;SDS011;47650;49.848;9.620;2023-03-01T06:03:26;25.98;;;15.65;;
61741;SDS011;47650;49.848;9.620;2023-03-01T06:05:56;26.63;;;17.85;;
61741;SDS011;47650;49.848;9.620;2023-03-01T06:08:24;26.88;;;18.30;;
61741;SDS011;47650;49.848;9.620;2023-03-01T06:10:55;27.10;;;17.45;;
61741;SDS011;47650;49.848;9.620;2023-03-01T06:13:20;24.13;;;18.23;;
61741;SDS011;47650;49.848;9.620;2023-03-01T06:15:46;23.85;;;16.52;;
61741;SDS011;47650;49.848;9.620;2023-03-01T06:18:12;25.63;;;16.83;;
61741;SDS011;47650;49.848;9.620;2023-03-01T06:20:37;29.23;;;17.08;;
61741;SDS011;47650;49.848;9.620;2023-03-01T06:23:03;20.83;;;16.60;;
61741;SDS011;47650;49.848;9.620;2023-03-01T06:25:29;23.73;;;16.77;;
61741;SDS011;47650;49.848;9.620;2023-03-01T06:27:55;26.67;;;17.48;;
61741;SDS011;47650;49.848;9.620;2023-03-01T06:30:22;22.48;;;16.88;;
61741;SDS011;47650;49.848;9.620;2023-03-01T06:32:52;26.77;;;17.45;;
61741;SDS011;47650;49.848;9.620;2023-03-01T06:35:18;28.40;;;17.55;;
61741;SDS011;47650;49.848;9.620;2023-03-01T06:37:46;26.05;;;16.90;;
61741;SDS011;47650;49.848;9.620;2023-03-01T06:40:16;24.15;;;17.02;;
61741;SDS011;47650;49.848;9.620;2023-03-01T06:42:43;23.25;;;16.10;;
61741;SDS011;47650;49.848;9.620;2023-03-01T06:45:14;25.45;;;16.50;;
61741;SDS011;47650;49.848;9.620;2023-03-01T06:48:00;24.52;;;17.05;;
61741;SDS011;47650;49.848;9.620;2023-03-01T06:50:28;22.85;;;16.38;;
61741;SDS011;47650;49.848;9.620;2023-03-01T06:52:56;23.48;;;16.15;;
61741;SDS011;47650;49.848;9.620;2023-03-01T06:55:25;23.67;;;16.65;;
61741;SDS011;47650;49.848;9.620;2023-03-01T06:57:59;23.40;;;13.75;;
61741;SDS011;47650;49.848;9.620;2023-03-01T07:00:32;28.52;;;15.57;;
61741;SDS011;47650;49.848;9.620;2023-03-01T07:03:04;20.48;;;13.75;;
61741;SDS011;47650;49.848;9.620;2023-03-01T07:05:29;19.10;;;14.77;;
61741;SDS011;47650;49.848;9.620;2023-03-01T07:08:02;23.42;;;15.95;;
61741;SDS011;47650;49.848;9.620;2023-03-01T07:10:28;23.73;;;17.00;;
61741;SDS011;47650;49.848;9.620;2023-03-01T07:12:54;21.77;;;16.35;;
61741;SDS011;47650;49.848;9.620;2023-03-01T07:15:21;22.95;;;16.23;;
61741;SDS011;47650;49.848;9.620;2023-03-01T07:17:46;19.83;;;15.50;;
61741;SDS011;47650;49.848;9.620;2023-03-01T07:20:14;21.83;;;16.30;;
61741;SDS011;47650;49.848;9.620;2023-03-01T07:22:46;21.95;;;15.45;;
61741;SDS011;47650;49.848;9.620;2023-03-01T07:25:17;21.10;;;15.05;;
61741;SDS011;47650;49.848;9.620;2023-03-01T07:27:42;21.58;;;15.02;;
61741;SDS011;47650;49.848;9.620;2023-03-01T07:30:08;20.95;;;14.85;;
61741;SDS011;47650;49.848;9.620;2023-03-01T07:32:34;19.65;;;14.27;;
61741;SDS011;47650;49.848;9.620;2023-03-01T07:34:59;19.95;;;15.15;;
61741;SDS011;47650;49.848;9.620;2023-03-01T07:37:26;19.70;;;14.68;;
61741;SDS011;47650;49.848;9.620;2023-03-01T07:39:51;21.75;;;14.93;;
61741;SDS011;47650;49.848;9.620;2023-03-01T07:42:19;22.42;;;15.63;;
61741;SDS011;47650;49.848;9.620;2023-03-01T07:44:45;19.35;;;14.75;;
61741;SDS011;47650;49.848;9.620;2023-03-01T07:47:11;20.70;;;15.50;;
61741;SDS011;47650;49.848;9.620;2023-03-01T07:49:36;18.73;;;14.90;;
61741;SDS011;47650;49.848;9.620;2023-03-01T07:52:02;16.25;;;13.23;;
61741;SDS011;47650;49.848;9.620;2023-03-01T07:54:27;17.33;;;13.18;;
61741;SDS011;47650;49.848;9.620;2023-03-01T07:56:54;19.33;;;13.75;;
61741;SDS011;47650;49.848;9.620;2023-03-01T07:59:28;16.38;;;13.43;;
61741;SDS011;47650;49.848;9.620;2023-03-01T08:01:56;16.27;;;13.20;;
61741;SDS011;47650;49.848;9.620;2023-03-01T08:04:22;17.20;;;13.13;;
61741;SDS011;47650;49.848;9.620;2023-03-01T08:06:49;15.25;;;12.48;;
61741;SDS011;47650;49.848;9.620;2023-03-01T08:09:15;17.38;;;13.60;;
61741;SDS011;47650;49.848;9.620;2023-03-01T08:11:40;17.13;;;13.23;;
61741;SDS011;47650;49.848;9.620;2023-03-01T08:14:06;16.88;;;14.15;;
61741;SDS011;47650;49.848;9.620;2023-03-01T08:16:33;17.20;;;13.73;;
61741;SDS011;47650;49.848;9.620;2023-03-01T08:19:03;15.93;;;13.38;;
61741;SDS011;47650;49.848;9.620;2023-03-01T08:21:36;15.85;;;14.15;;
61741;SDS011;47650;49.848;9.620;2023-03-01T08:24:05;15.32;;;13.82;;
61741;SDS011;47650;49.848;9.620;2023-03-01T08:26:32;15.10;;;13.50;;
61741;SDS011;47650;49.848;9.620;2023-03-01T08:29:00;14.95;;;13.30;;
61741;SDS011;47650;49.848;9.620;2023-03-01T08:31:28;16.75;;;14.27;;
61741;SDS011;47650;49.848;9.620;2023-03-01T08:33:59;17.75;;;14.13;;
61741;SDS011;47650;49.848;9.620;2023-03-01T08:36:28;15.18;;;13.52;;
61741;SDS011;47650;49.848;9.620;2023-03-01T08:38:56;15.75;;;14.15;;
61741;SDS011;47650;49.848;9.620;2023-03-01T08:41:21;17.83;;;15.93;;
61741;SDS011;47650;49.848;9.620;2023-03-01T08:43:48;17.33;;;15.55;;
61741;SDS011;47650;49.848;9.620;2023-03-01T08:46:14;16.05;;;14.38;;
61741;SDS011;47650;49.848;9.620;2023-03-01T08:48:41;16.48;;;14.80;;
61741;SDS011;47650;49.848;9.620;2023-03-01T08:51:12;17.85;;;16.00;;
61741;SDS011;47650;49.848;9.620;2023-03-01T08:53:39;16.50;;;15.00;;
61741;SDS011;47650;49.848;9.620;2023-03-01T08:56:08;17.27;;;15.43;;
61741;SDS011;47650;49.848;9.620;2023-03-01T08:58:34;17.35;;;15.55;;
61741;SDS011;47650;49.848;9.620;2023-03-01T09:00:59;16.77;;;15.23;;
61741;SDS011;47650;49.848;9.620;2023-03-01T09:03:33;16.48;;;14.93;;
61741;SDS011;47650;49.848;9.620;2023-03-01T09:06:03;16.35;;;14.73;;
61741;SDS011;47650;49.848;9.620;2023-03-01T09:08:36;16.52;;;14.80;;
61741;SDS011;47650;49.848;9.620;2023-03-01T09:11:04;17.75;;;16.05;;
61741;SDS011;47650;49.848;9.620;2023-03-01T09:13:30;16.60;;;14.98;;
61741;SDS011;47650;49.848;9.620;2023-03-01T09:15:58;17.77;;;15.95;;
61741;SDS011;47650;49.848;9.620;2023-03-01T09:18:26;17.27;;;15.52;;
61741;SDS011;47650;49.848;9.620;2023-03-01T09:21:00;22.00;;;20.20;;
61741;SDS011;47650;49.848;9.620;2023-03-01T09:23:27;15.88;;;14.40;;
61741;SDS011;47650;49.848;9.620;2023-03-01T09:25:52;19.58;;;17.35;;
61741;SDS011;47650;49.848;9.620;2023-03-01T09:28:18;16.52;;;14.88;;
61741;SDS011;47650;49.848;9.620;2023-03-01T09:30:43;17.15;;;15.63;;
61741;SDS011;47650;49.848;9.620;2023-03-01T09:33:16;17.50;;;15.88;;
61741;SDS011;47650;49.848;9.620;2023-03-01T09:35:41;16.90;;;15.30;;
61741;SDS011;47650;49.848;9.620;2023-03-01T09:38:16;18.75;;;16.95;;
61741;SDS011;47650;49.848;9.620;2023-03-01T09:40:42;18.48;;;16.88;;
61741;SDS011;47650;49.848;9.620;2023-03-01T09:46:37;26.08;;;23.92;;
61741;SDS011;47650;49.848;9.620;2023-03-01T09:49:22;33.22;;;30.95;;
61741;SDS011;47650;49.848;9.620;2023-03-01T09:51:57;53.40;;;50.20;;
61741;SDS011;47650;49.848;9.620;2023-03-01T09:54:31;38.88;;;36.45;;
61741;SDS011;47650;49.848;9.620;2023-03-01T09:57:11;33.03;;;30.73;;
61741;SDS011;47650;49.848;9.620;2023-03-01T09:59:58;24.00;;;22.02;;
61741;SDS011;47650;49.848;9.620;2023-03-01T10:10:39;20.63;;;18.95;;
61741;SDS011;47650;49.848;9.620;2023-03-01T10:13:56;19.85;;;17.95;;
61741;SDS011;47650;49.848;9.620;2023-03-01T10:16:03;19.92;;;18.42;;
61741;SDS011;47650;49.848;9.620;2023-03-01T10:18:39;21.40;;;19.60;;
61741;SDS011;47650;49.848;9.620;2023-03-01T10:21:11;22.25;;;20.55;;
61741;SDS011;47650;49.848;9.620;2023-03-01T10:23:40;17.98;;;16.27;;
61741;SDS011;47650;49.848;9.620;2023-03-01T10:26:11;17.67;;;15.98;;
61741;SDS011;47650;49.848;9.620;2023-03-01T10:29:11;18.60;;;16.98;;
61741;SDS011;47650;49.848;9.620;2023-03-01T10:31:39;16.08;;;14.77;;
61741;SDS011;47650;49.848;9.620;2023-03-01T10:34:09;17.50;;;15.90;;
61741;SDS011;47650;49.848;9.620;2023-03-01T10:36:37;16.25;;;14.82;;
61741;SDS011;47650;49.848;9.620;2023-03-01T10:39:14;17.83;;;16.08;;
61741;SDS011;47650;49.848;9.620;2023-03-01T10:49:57;18.50;;;16.90;;
61741;SDS011;47650;49.848;9.620;2023-03-01T10:52:39;17.45;;;16.05;;
61741;SDS011;47650;49.848;9.620;2023-03-01T10:58:18;19.15;;;17.45;;
61741;SDS011;47650;49.848;9.620;2023-03-01T11:00:46;17.90;;;16.38;;
61741;SDS011;47650;49.848;9.620;2023-03-01T11:03:38;18.83;;;17.33;;
61741;SDS011;47650;49.848;9.620;2023-03-01T11:08:44;17.08;;;15.48;;
61741;SDS011;47650;49.848;9.620;2023-03-01T11:11:16;15.70;;;14.40;;
61741;SDS011;47650;49.848;9.620;2023-03-01T11:13:58;16.25;;;14.95;;
61741;SDS011;47650;49.848;9.620;2023-03-01T11:16:34;20.58;;;19.13;;
61741;SDS011;47650;49.848;9.620;2023-03-01T11:19:14;20.05;;;18.55;;
61741;SDS011;47650;49.848;9.620;2023-03-01T11:21:57;16.00;;;14.70;;
61741;SDS011;47650;49.848;9.620;2023-03-01T11:24:29;17.90;;;16.55;;
61741;SDS011;47650;49.848;9.620;2023-03-01T11:29:32;17.10;;;15.60;;
61741;SDS011;47650;49.848;9.620;2023-03-01T11:32:05;16.08;;;14.57;;
61741;SDS011;47650;49.848;9.620;2023-03-01T11:34:47;16.67;;;14.93;;
61741;SDS011;47650;49.848;9.620;2023-03-01T11:45:22;16.23;;;14.73;;
61741;SDS011;47650;49.848;9.620;2023-03-01T11:47:55;13.60;;;12.40;;
61741;SDS011;47650;49.848;9.620;2023-03-01T11:50:42;15.05;;;13.75;;
61741;SDS011;47650;49.848;9.620;2023-03-01T11:56:14;13.25;;;11.95;;
61741;SDS011;47650;49.848;9.620;2023-03-01T11:58:48;14.20;;;12.90;;
61741;SDS011;47650;49.848;9.620;2023-03-01T12:01:32;13.18;;;12.07;;
61741;SDS011;47650;49.848;9.620;2023-03-01T12:04:09;13.00;;;11.80;;
61741;SDS011;47650;49.848;9.620;2023-03-01T12:12:33;13.35;;;12.23;;
61741;SDS011;47650;49.848;9.620;2023-03-01T12:23:34;13.25;;;12.18;;
61741;SDS011;47650;49.848;9.620;2023-03-01T12:26:32;12.93;;;11.82;;
61741;SDS011;47650;49.848;9.620;2023-03-01T12:32:02;12.57;;;11.50;;
61741;SDS011;47650;49.848;9.620;2023-03-01T12:45:51;11.45;;;10.50;;
61741;SDS011;47650;49.848;9.620;2023-03-01T12:48:31;13.00;;;11.90;;
61741;SDS011;47650;49.848;9.620;2023-03-01T12:51:26;13.13;;;11.93;;
61741;SDS011;47650;49.848;9.620;2023-03-01T12:54:05;12.35;;;11.35;;
61741;SDS011;47650;49.848;9.620;2023-03-01T12:56:43;11.57;;;10.68;;
61741;SDS011;47650;49.848;9.620;2023-03-01T13:02:02;12.70;;;11.60;;
61741;SDS011;47650;49.848;9.620;2023-03-01T13:10:59;11.60;;;10.60;;
61741;SDS011;47650;49.848;9.620;2023-03-01T13:13:33;12.63;;;11.55;;
61741;SDS011;47650;49.848;9.620;2023-03-01T13:16:22;11.90;;;10.90;;
61741;SDS011;47650;49.848;9.620;2023-03-01T13:21:45;11.88;;;10.68;;
61741;SDS011;47650;49.848;9.620;2023-03-01T13:24:28;11.23;;;10.23;;
61741;SDS011;47650;49.848;9.620;2023-03-01T13:27:09;11.95;;;10.85;;
61741;SDS011;47650;49.848;9.620;2023-03-01T13:29:53;11.05;;;10.05;;
61741;SDS011;47650;49.848;9.620;2023-03-01T13:32:29;11.93;;;10.73;;
61741;SDS011;47650;49.848;9.620;2023-03-01T13:37:45;11.98;;;10.98;;
61741;SDS011;47650;49.848;9.620;2023-03-01T13:43:22;11.73;;;10.73;;
61741;SDS011;47650;49.848;9.620;2023-03-01T13:45:49;11.48;;;10.48;;
61741;SDS011;47650;49.848;9.620;2023-03-01T13:48:23;12.07;;;10.18;;
61741;SDS011;47650;49.848;9.620;2023-03-01T13:50:58;11.45;;;10.35;;
61741;SDS011;47650;49.848;9.620;2023-03-01T13:53:26;11.70;;;10.70;;
61741;SDS011;47650;49.848;9.620;2023-03-01T13:58:43;11.32;;;10.23;;
61741;SDS011;47650;49.848;9.620;2023-03-01T14:09:47;11.07;;;9.98;;
61741;SDS011;47650;49.848;9.620;2023-03-01T14:15:14;10.90;;;9.80;;
61741;SDS011;47650;49.848;9.620;2023-03-01T14:20:47;11.18;;;9.63;;
61741;SDS011;47650;49.848;9.620;2023-03-01T14:23:22;10.80;;;9.80;;
61741;SDS011;47650;49.848;9.620;2023-03-01T14:25:49;11.05;;;9.93;;
61741;SDS011;47650;49.848;9.620;2023-03-01T14:28:19;10.55;;;9.45;;
61741;SDS011;47650;49.848;9.620;2023-03-01T14:31:01;9.57;;;8.68;;
61741;SDS011;47650;49.848;9.620;2023-03-01T14:33:30;11.27;;;8.27;;
61741;SDS011;47650;49.848;9.620;2023-03-01T14:38:36;10.43;;;9.40;;
61741;SDS011;47650;49.848;9.620;2023-03-01T14:41:15;10.90;;;9.55;;
61741;SDS011;47650;49.848;9.620;2023-03-01T14:43:46;9.65;;;8.65;;
61741;SDS011;47650;49.848;9.620;2023-03-01T14:46:25;10.60;;;9.67;;
61741;SDS011;47650;49.848;9.620;2023-03-01T14:49:10;9.93;;;8.93;;
61741;SDS011;47650;49.848;9.620;2023-03-01T14:54:42;10.27;;;9.38;;
61741;SDS011;47650;49.848;9.620;2023-03-01T14:57:17;9.70;;;8.90;;
61741;SDS011;47650;49.848;9.620;2023-03-01T14:59:52;9.75;;;8.95;;
61741;SDS011;47650;49.848;9.620;2023-03-01T15:02:21;9.85;;;8.80;;
61741;SDS011;47650;49.848;9.620;2023-03-01T15:04:50;10.13;;;9.18;;
61741;SDS011;47650;49.848;9.620;2023-03-01T15:07:20;9.52;;;8.70;;
61741;SDS011;47650;49.848;9.620;2023-03-01T15:09:53;9.55;;;8.65;;
61741;SDS011;47650;49.848;9.620;2023-03-01T15:14:56;9.73;;;8.93;;
61741;SDS011;47650;49.848;9.620;2023-03-01T15:17:26;9.35;;;8.55;;
61741;SDS011;47650;49.848;9.620;2023-03-01T15:19:57;10.02;;;9.00;;
61741;SDS011;47650;49.848;9.620;2023-03-01T15:22:24;11.00;;;9.98;;
61741;SDS011;47650;49.848;9.620;2023-03-01T15:24:51;13.73;;;9.75;;
61741;SDS011;47650;49.848;9.620;2023-03-01T15:27:25;10.43;;;9.35;;
61741;SDS011;47650;49.848;9.620;2023-03-01T15:29:53;9.65;;;8.68;;
61741;SDS011;47650;49.848;9.620;2023-03-01T15:32:33;9.27;;;8.30;;
61741;SDS011;47650;49.848;9.620;2023-03-01T15:40:51;10.32;;;9.20;;
61741;SDS011;47650;49.848;9.620;2023-03-01T15:46:29;10.05;;;9.05;;
61741;SDS011;47650;49.848;9.620;2023-03-01T15:49:03;9.77;;;8.77;;
61741;SDS011;47650;49.848;9.620;2023-03-01T15:51:50;10.18;;;9.18;;
61741;SDS011;47650;49.848;9.620;2023-03-01T15:54:21;10.48;;;9.48;;
61741;SDS011;47650;49.848;9.620;2023-03-01T15:56:48;11.88;;;9.27;;
61741;SDS011;47650;49.848;9.620;2023-03-01T15:59:16;9.80;;;8.90;;
61741;SDS011;47650;49.848;9.620;2023-03-01T16:01:42;10.77;;;8.50;;
61741;SDS011;47650;49.848;9.620;2023-03-01T16:04:16;9.25;;;8.38;;
61741;SDS011;47650;49.848;9.620;2023-03-01T16:06:50;10.35;;;8.68;;
61741;SDS011;47650;49.848;9.620;2023-03-01T16:09:30;10.13;;;9.13;;
61741;SDS011;47650;49.848;9.620;2023-03-01T16:12:01;9.75;;;8.60;;
61741;SDS011;47650;49.848;9.620;2023-03-01T16:14:27;10.25;;;9.18;;
61741;SDS011;47650;49.848;9.620;2023-03-01T16:16:53;10.07;;;9.07;;
61741;SDS011;47650;49.848;9.620;2023-03-01T16:19:20;12.38;;;9.25;;
61741;SDS011;47650;49.848;9.620;2023-03-01T16:21:45;10.98;;;9.30;;
61741;SDS011;47650;49.848;9.620;2023-03-01T16:24:20;11.07;;;9.73;;
61741;SDS011;47650;49.848;9.620;2023-03-01T16:26:45;11.50;;;10.27;;
61741;SDS011;47650;49.848;9.620;2023-03-01T16:29:12;11.70;;;9.90;;
61741;SDS011;47650;49.848;9.620;2023-03-01T16:31:41;11.50;;;10.23;;
61741;SDS011;47650;49.848;9.620;2023-03-01T16:34:06;10.95;;;9.85;;
61741;SDS011;47650;49.848;9.620;2023-03-01T16:36:32;12.68;;;10.07;;
61741;SDS011;47650;49.848;9.620;2023-03-01T16:38:58;12.77;;;10.45;;
61741;SDS011;47650;49.848;9.620;2023-03-01T16:41:32;12.68;;;10.02;;
61741;SDS011;47650;49.848;9.620;2023-03-01T16:43:58;12.88;;;10.80;;
61741;SDS011;47650;49.848;9.620;2023-03-01T16:46:25;13.18;;;10.73;;
61741;SDS011;47650;49.848;9.620;2023-03-01T16:49:00;12.90;;;10.35;;
61741;SDS011;47650;49.848;9.620;2023-03-01T16:51:40;13.05;;;10.88;;
61741;SDS011;47650;49.848;9.620;2023-03-01T16:54:06;11.95;;;9.57;;
61741;SDS011;47650;49.848;9.620;2023-03-01T16:56:31;15.93;;;11.35;;
61741;SDS011;47650;49.848;9.620;2023-03-01T16:59:05;17.35;;;14.32;;
61741;SDS011;47650;49.848;9.620;2023-03-01T17:01:31;13.35;;;11.05;;
61741;SDS011;47650;49.848;9.620;2023-03-01T17:04:02;16.23;;;12.02;;
61741;SDS011;47650;49.848;9.620;2023-03-01T17:06:31;14.30;;;11.35;;